sensor_id;sensor_type;location;lat;lon;timestamp;P1;durP1;ratioP1;P2;durP2;ratioP2
14903;SDS011;7543;53.148;8.234;2022-11-12T00:00:48;7.27;;;4.23;;
14903;SDS011;7543;53.148;8.234;2022-11-12T00:03:35;8.17;;;4.43;;
14903;SDS011;7543;53.148;8.234;2022-11-12T00:06:23;8.03;;;3.80;;
14903;SDS011;7543;53.148;8.234;2022-11-12T00:09:10;8.37;;;4.43;;
14903;SDS011;7543;53.148;8.234;2022-11-12T00:11:56;6.30;;;4.23;;
14903;SDS011;7543;53.148;8.234;2022-11-12T00:14:43;6.50;;;4.20;;
14903;SDS011;7543;53.148;8.234;2022-11-12T00:17:29;8.83;;;4.97;;
14903;SDS011;7543;53.148;8.234;2022-11-12T00:20:16;9.63;;;4.77;;
14903;SDS011;7543;53.148;8.234;2022-11-12T00:23:05;5.90;;;3.90;;
14903;SDS011;7543;53.148;8.234;2022-11-12T00:25:58;8.67;;;4.10;;
14903;SDS011;7543;53.148;8.234;2022-11-12T00:28:45;10.97;;;3.80;;
14903;SDS011;7543;53.148;8.234;2022-11-12T00:31:31;6.73;;;3.70;;
14903;SDS011;7543;53.148;8.234;2022-11-12T00:34:18;8.87;;;3.93;;
14903;SDS011;7543;53.148;8.234;2022-11-12T00:37:05;8.50;;;4.10;;
14903;SDS011;7543;53.148;8.234;2022-11-12T00:39:53;7.57;;;4.10;;
14903;SDS011;7543;53.148;8.234;2022-11-12T00:42:39;7.93;;;4.40;;
14903;SDS011;7543;53.148;8.234;2022-11-12T00:45:26;5.90;;;3.60;;
14903;SDS011;7543;53.148;8.234;2022-11-12T00:48:13;7.43;;;3.87;;
14903;SDS011;7543;53.148;8.234;2022-11-12T00:51:00;8.27;;;3.70;;
14903;SDS011;7543;53.148;8.234;2022-11-12T00:53:47;7.13;;;4.10;;
14903;SDS011;7543;53.148;8.234;2022-11-12T00:56:35;7.80;;;4.00;;
14903;SDS011;7543;53.148;8.234;2022-11-12T00:59:22;10.83;;;3.60;;
14903;SDS011;7543;53.148;8.234;2022-11-12T01:02:09;5.40;;;3.47;;
14903;SDS011;7543;53.148;8.234;2022-11-12T01:04:55;6.50;;;3.90;;
14903;SDS011;7543;53.148;8.234;2022-11-12T01:07:42;9.17;;;4.00;;
14903;SDS011;7543;53.148;8.234;2022-11-12T01:10:29;7.60;;;3.50;;
14903;SDS011;7543;53.148;8.234;2022-11-12T01:13:17;4.50;;;3.33;;
14903;SDS011;7543;53.148;8.234;2022-11-12T01:16:04;12.13;;;3.80;;
14903;SDS011;7543;53.148;8.234;2022-11-12T01:18:51;8.63;;;3.97;;
14903;SDS011;7543;53.148;8.234;2022-11-12T01:21:40;7.13;;;3.93;;
14903;SDS011;7543;53.148;8.234;2022-11-12T01:24:28;8.10;;;4.20;;
14903;SDS011;7543;53.148;8.234;2022-11-12T01:27:14;7.83;;;3.37;;
14903;SDS011;7543;53.148;8.234;2022-11-12T01:30:02;6.00;;;3.20;;
14903;SDS011;7543;53.148;8.234;2022-11-12T01:32:50;6.07;;;3.27;;
14903;SDS011;7543;53.148;8.234;2022-11-12T01:35:36;5.43;;;3.23;;
14903;SDS011;7543;53.148;8.234;2022-11-12T01:38:23;7.23;;;3.70;;
14903;SDS011;7543;53.148;8.234;2022-11-12T01:41:11;5.43;;;3.23;;
14903;SDS011;7543;53.148;8.234;2022-11-12T01:44:06;4.33;;;3.17;;
14903;SDS011;7543;53.148;8.234;2022-11-12T01:46:59;5.83;;;3.50;;
14903;SDS011;7543;53.148;8.234;2022-11-12T01:49:50;7.37;;;3.53;;
14903;SDS011;7543;53.148;8.234;2022-11-12T01:52:39;5.47;;;3.40;;
14903;SDS011;7543;53.148;8.234;2022-11-12T01:55:29;6.27;;;3.50;;
14903;SDS011;7543;53.148;8.234;2022-11-12T01:58:18;5.43;;;3.80;;
14903;SDS011;7543;53.148;8.234;2022-11-12T02:01:07;9.57;;;3.33;;
14903;SDS011;7543;53.148;8.234;2022-11-12T02:03:55;5.93;;;3.50;;
14903;SDS011;7543;53.148;8.234;2022-11-12T02:06:42;5.17;;;3.50;;
14903;SDS011;7543;53.148;8.234;2022-11-12T02:09:30;6.63;;;4.03;;
14903;SDS011;7543;53.148;8.234;2022-11-12T02:12:17;6.43;;;3.70;;
14903;SDS011;7543;53.148;8.234;2022-11-12T02:15:18;7.50;;;3.90;;
14903;SDS011;7543;53.148;8.234;2022-11-12T02:18:05;6.03;;;3.87;;
14903;SDS011;7543;53.148;8.234;2022-11-12T02:20:53;7.60;;;3.67;;
14903;SDS011;7543;53.148;8.234;2022-11-12T02:23:44;6.10;;;3.17;;
14903;SDS011;7543;53.148;8.234;2022-11-12T02:26:32;5.63;;;3.43;;
14903;SDS011;7543;53.148;8.234;2022-11-12T02:29:20;7.20;;;3.60;;
14903;SDS011;7543;53.148;8.234;2022-11-12T02:32:07;5.77;;;3.67;;
14903;SDS011;7543;53.148;8.234;2022-11-12T02:34:53;6.37;;;3.73;;
14903;SDS011;7543;53.148;8.234;2022-11-12T02:37:40;5.97;;;3.47;;
14903;SDS011;7543;53.148;8.234;2022-11-12T02:40:28;9.17;;;3.57;;
14903;SDS011;7543;53.148;8.234;2022-11-12T02:43:14;5.67;;;3.53;;
14903;SDS011;7543;53.148;8.234;2022-11-12T02:46:01;5.13;;;3.13;;
14903;SDS011;7543;53.148;8.234;2022-11-12T02:48:48;7.40;;;3.53;;
14903;SDS011;7543;53.148;8.234;2022-11-12T02:51:35;6.97;;;4.00;;
14903;SDS011;7543;53.148;8.234;2022-11-12T02:54:22;6.47;;;3.30;;
14903;SDS011;7543;53.148;8.234;2022-11-12T02:57:09;7.80;;;3.20;;
14903;SDS011;7543;53.148;8.234;2022-11-12T02:59:56;4.83;;;3.50;;
14903;SDS011;7543;53.148;8.234;2022-11-12T03:02:42;7.33;;;3.63;;
14903;SDS011;7543;53.148;8.234;2022-11-12T03:05:43;5.57;;;3.20;;
14903;SDS011;7543;53.148;8.234;2022-11-12T03:08:30;6.43;;;3.47;;
14903;SDS011;7543;53.148;8.234;2022-11-12T03:11:17;6.57;;;3.30;;
14903;SDS011;7543;53.148;8.234;2022-11-12T03:14:05;5.43;;;3.17;;
14903;SDS011;7543;53.148;8.234;2022-11-12T03:16:51;8.13;;;3.80;;
14903;SDS011;7543;53.148;8.234;2022-11-12T03:19:38;5.80;;;3.17;;
14903;SDS011;7543;53.148;8.234;2022-11-12T03:22:24;6.60;;;3.57;;
14903;SDS011;7543;53.148;8.234;2022-11-12T03:25:11;5.33;;;3.57;;
14903;SDS011;7543;53.148;8.234;2022-11-12T03:27:58;6.13;;;3.70;;
14903;SDS011;7543;53.148;8.234;2022-11-12T03:30:46;6.80;;;3.40;;
14903;SDS011;7543;53.148;8.234;2022-11-12T03:33:33;3.80;;;3.03;;
14903;SDS011;7543;53.148;8.234;2022-11-12T03:36:20;6.07;;;3.33;;
14903;SDS011;7543;53.148;8.234;2022-11-12T03:39:06;6.63;;;3.47;;
14903;SDS011;7543;53.148;8.234;2022-11-12T03:41:53;4.80;;;3.43;;
14903;SDS011;7543;53.148;8.234;2022-11-12T03:44:40;6.40;;;3.03;;
14903;SDS011;7543;53.148;8.234;2022-11-12T03:47:28;5.07;;;3.20;;
14903;SDS011;7543;53.148;8.234;2022-11-12T03:50:15;6.07;;;3.37;;
14903;SDS011;7543;53.148;8.234;2022-11-12T03:53:03;4.43;;;3.00;;
14903;SDS011;7543;53.148;8.234;2022-11-12T03:55:49;5.60;;;3.27;;
14903;SDS011;7543;53.148;8.234;2022-11-12T03:58:36;5.53;;;3.63;;
14903;SDS011;7543;53.148;8.234;2022-11-12T04:01:23;5.60;;;3.20;;
14903;SDS011;7543;53.148;8.234;2022-11-12T04:04:11;3.97;;;2.60;;
14903;SDS011;7543;53.148;8.234;2022-11-12T04:06:58;8.07;;;3.73;;
14903;SDS011;7543;53.148;8.234;2022-11-12T04:10:03;6.47;;;2.80;;
14903;SDS011;7543;53.148;8.234;2022-11-12T04:12:50;7.27;;;3.53;;
14903;SDS011;7543;53.148;8.234;2022-11-12T04:15:58;4.07;;;2.87;;
14903;SDS011;7543;53.148;8.234;2022-11-12T04:19:04;6.33;;;3.77;;
14903;SDS011;7543;53.148;8.234;2022-11-12T04:22:10;5.13;;;3.03;;
14903;SDS011;7543;53.148;8.234;2022-11-12T04:24:56;5.20;;;3.07;;
14903;SDS011;7543;53.148;8.234;2022-11-12T04:28:01;5.70;;;3.53;;
14903;SDS011;7543;53.148;8.234;2022-11-12T04:30:48;6.57;;;3.53;;
14903;SDS011;7543;53.148;8.234;2022-11-12T04:33:33;10.00;;;3.50;;
14903;SDS011;7543;53.148;8.234;2022-11-12T04:36:20;8.97;;;3.50;;
14903;SDS011;7543;53.148;8.234;2022-11-12T04:39:08;6.23;;;3.30;;
14903;SDS011;7543;53.148;8.234;2022-11-12T04:41:55;4.80;;;2.90;;
14903;SDS011;7543;53.148;8.234;2022-11-12T04:44:59;5.77;;;3.23;;
14903;SDS011;7543;53.148;8.234;2022-11-12T04:47:48;5.50;;;3.40;;
14903;SDS011;7543;53.148;8.234;2022-11-12T04:50:35;5.57;;;3.33;;
14903;SDS011;7543;53.148;8.234;2022-11-12T04:53:23;5.90;;;3.40;;
14903;SDS011;7543;53.148;8.234;2022-11-12T04:56:11;6.43;;;3.57;;
14903;SDS011;7543;53.148;8.234;2022-11-12T04:58:57;6.03;;;3.87;;
14903;SDS011;7543;53.148;8.234;2022-11-12T05:01:44;4.33;;;2.90;;
14903;SDS011;7543;53.148;8.234;2022-11-12T05:04:30;6.30;;;3.40;;
14903;SDS011;7543;53.148;8.234;2022-11-12T05:07:17;8.20;;;3.23;;
14903;SDS011;7543;53.148;8.234;2022-11-12T05:10:05;5.40;;;3.30;;
14903;SDS011;7543;53.148;8.234;2022-11-12T05:12:54;7.53;;;3.57;;
14903;SDS011;7543;53.148;8.234;2022-11-12T05:15:42;5.27;;;3.20;;
14903;SDS011;7543;53.148;8.234;2022-11-12T05:18:28;4.77;;;2.97;;
14903;SDS011;7543;53.148;8.234;2022-11-12T05:21:15;5.30;;;3.70;;
14903;SDS011;7543;53.148;8.234;2022-11-12T05:24:19;7.83;;;4.33;;
14903;SDS011;7543;53.148;8.234;2022-11-12T05:27:07;6.50;;;3.90;;
14903;SDS011;7543;53.148;8.234;2022-11-12T05:29:57;5.97;;;3.13;;
14903;SDS011;7543;53.148;8.234;2022-11-12T05:32:43;5.17;;;3.47;;
14903;SDS011;7543;53.148;8.234;2022-11-12T05:35:30;5.97;;;3.17;;
14903;SDS011;7543;53.148;8.234;2022-11-12T05:38:16;5.93;;;3.30;;
14903;SDS011;7543;53.148;8.234;2022-11-12T05:41:03;8.43;;;3.53;;
14903;SDS011;7543;53.148;8.234;2022-11-12T05:43:50;5.03;;;3.20;;
14903;SDS011;7543;53.148;8.234;2022-11-12T05:46:39;5.70;;;3.10;;
14903;SDS011;7543;53.148;8.234;2022-11-12T05:49:25;4.43;;;2.97;;
14903;SDS011;7543;53.148;8.234;2022-11-12T05:52:12;7.50;;;3.30;;
14903;SDS011;7543;53.148;8.234;2022-11-12T05:54:58;7.20;;;3.37;;
14903;SDS011;7543;53.148;8.234;2022-11-12T05:57:45;8.27;;;3.43;;
14903;SDS011;7543;53.148;8.234;2022-11-12T06:00:32;9.97;;;3.90;;
14903;SDS011;7543;53.148;8.234;2022-11-12T06:03:24;4.90;;;3.23;;
14903;SDS011;7543;53.148;8.234;2022-11-12T06:06:11;5.93;;;3.60;;
14903;SDS011;7543;53.148;8.234;2022-11-12T06:08:58;6.03;;;3.27;;
14903;SDS011;7543;53.148;8.234;2022-11-12T06:11:44;5.00;;;3.57;;
14903;SDS011;7543;53.148;8.234;2022-11-12T06:14:31;8.40;;;3.63;;
14903;SDS011;7543;53.148;8.234;2022-11-12T06:17:18;6.07;;;3.47;;
14903;SDS011;7543;53.148;8.234;2022-11-12T06:20:06;6.50;;;3.27;;
14903;SDS011;7543;53.148;8.234;2022-11-12T06:22:55;5.30;;;3.13;;
14903;SDS011;7543;53.148;8.234;2022-11-12T06:25:41;7.03;;;3.00;;
14903;SDS011;7543;53.148;8.234;2022-11-12T06:28:28;7.43;;;3.27;;
14903;SDS011;7543;53.148;8.234;2022-11-12T06:31:15;4.47;;;3.20;;
14903;SDS011;7543;53.148;8.234;2022-11-12T06:34:02;4.97;;;2.93;;
14903;SDS011;7543;53.148;8.234;2022-11-12T06:36:50;5.90;;;3.23;;
14903;SDS011;7543;53.148;8.234;2022-11-12T06:39:37;6.57;;;3.43;;
14903;SDS011;7543;53.148;8.234;2022-11-12T06:42:24;6.27;;;3.20;;
14903;SDS011;7543;53.148;8.234;2022-11-12T06:45:10;11.10;;;3.70;;
14903;SDS011;7543;53.148;8.234;2022-11-12T06:47:57;5.00;;;3.13;;
14903;SDS011;7543;53.148;8.234;2022-11-12T06:50:44;8.20;;;3.77;;
14903;SDS011;7543;53.148;8.234;2022-11-12T06:53:32;5.40;;;3.23;;
14903;SDS011;7543;53.148;8.234;2022-11-12T06:56:19;4.83;;;3.10;;
14903;SDS011;7543;53.148;8.234;2022-11-12T06:59:06;11.40;;;3.57;;
14903;SDS011;7543;53.148;8.234;2022-11-12T07:01:53;7.30;;;3.60;;
14903;SDS011;7543;53.148;8.234;2022-11-12T07:04:39;4.87;;;2.90;;
14903;SDS011;7543;53.148;8.234;2022-11-12T07:07:27;6.27;;;3.37;;
14903;SDS011;7543;53.148;8.234;2022-11-12T07:10:15;5.23;;;3.40;;
14903;SDS011;7543;53.148;8.234;2022-11-12T07:13:02;6.60;;;3.17;;
14903;SDS011;7543;53.148;8.234;2022-11-12T07:15:49;5.70;;;3.40;;
14903;SDS011;7543;53.148;8.234;2022-11-12T07:18:36;5.90;;;3.43;;
14903;SDS011;7543;53.148;8.234;2022-11-12T07:21:22;4.97;;;3.20;;
14903;SDS011;7543;53.148;8.234;2022-11-12T07:24:09;6.70;;;3.30;;
14903;SDS011;7543;53.148;8.234;2022-11-12T07:26:57;5.07;;;3.10;;
14903;SDS011;7543;53.148;8.234;2022-11-12T07:29:44;5.83;;;3.53;;
14903;SDS011;7543;53.148;8.234;2022-11-12T07:32:31;7.57;;;3.57;;
14903;SDS011;7543;53.148;8.234;2022-11-12T07:35:17;8.23;;;3.97;;
14903;SDS011;7543;53.148;8.234;2022-11-12T07:38:04;5.00;;;3.10;;
14903;SDS011;7543;53.148;8.234;2022-11-12T07:40:51;6.50;;;3.37;;
14903;SDS011;7543;53.148;8.234;2022-11-12T07:43:39;4.40;;;2.90;;
14903;SDS011;7543;53.148;8.234;2022-11-12T07:46:26;7.53;;;3.37;;
14903;SDS011;7543;53.148;8.234;2022-11-12T07:49:13;5.47;;;3.30;;
14903;SDS011;7543;53.148;8.234;2022-11-12T07:52:00;8.60;;;3.67;;
14903;SDS011;7543;53.148;8.234;2022-11-12T07:54:46;6.10;;;3.90;;
14903;SDS011;7543;53.148;8.234;2022-11-12T07:57:33;7.83;;;3.73;;
14903;SDS011;7543;53.148;8.234;2022-11-12T08:00:21;4.63;;;3.40;;
14903;SDS011;7543;53.148;8.234;2022-11-12T08:03:08;4.67;;;3.00;;
14903;SDS011;7543;53.148;8.234;2022-11-12T08:05:55;6.13;;;3.77;;
14903;SDS011;7543;53.148;8.234;2022-11-12T08:08:44;8.93;;;4.00;;
14903;SDS011;7543;53.148;8.234;2022-11-12T08:11:31;6.70;;;3.93;;
14903;SDS011;7543;53.148;8.234;2022-11-12T08:14:19;5.27;;;3.40;;
14903;SDS011;7543;53.148;8.234;2022-11-12T08:17:06;5.93;;;3.50;;
14903;SDS011;7543;53.148;8.234;2022-11-12T08:19:53;5.17;;;3.90;;
14903;SDS011;7543;53.148;8.234;2022-11-12T08:22:40;6.90;;;3.70;;
14903;SDS011;7543;53.148;8.234;2022-11-12T08:25:26;5.87;;;3.77;;
14903;SDS011;7543;53.148;8.234;2022-11-12T08:28:13;7.27;;;3.97;;
14903;SDS011;7543;53.148;8.234;2022-11-12T08:31:01;6.70;;;3.90;;
14903;SDS011;7543;53.148;8.234;2022-11-12T08:33:51;13.17;;;4.37;;
14903;SDS011;7543;53.148;8.234;2022-11-12T08:36:38;5.57;;;3.47;;
14903;SDS011;7543;53.148;8.234;2022-11-12T08:39:25;6.70;;;4.03;;
14903;SDS011;7543;53.148;8.234;2022-11-12T08:42:12;13.00;;;5.13;;
14903;SDS011;7543;53.148;8.234;2022-11-12T08:44:58;8.90;;;4.87;;
14903;SDS011;7543;53.148;8.234;2022-11-12T08:47:45;7.97;;;4.80;;
14903;SDS011;7543;53.148;8.234;2022-11-12T08:50:33;9.10;;;5.30;;
14903;SDS011;7543;53.148;8.234;2022-11-12T08:53:20;8.17;;;4.90;;
14903;SDS011;7543;53.148;8.234;2022-11-12T08:56:07;10.47;;;5.43;;
14903;SDS011;7543;53.148;8.234;2022-11-12T08:58:54;9.83;;;5.43;;
14903;SDS011;7543;53.148;8.234;2022-11-12T09:01:41;6.80;;;5.10;;
14903;SDS011;7543;53.148;8.234;2022-11-12T09:04:28;10.77;;;4.57;;
14903;SDS011;7543;53.148;8.234;2022-11-12T09:07:16;8.37;;;5.40;;
14903;SDS011;7543;53.148;8.234;2022-11-12T09:10:03;8.07;;;5.57;;
14903;SDS011;7543;53.148;8.234;2022-11-12T09:12:51;14.93;;;5.33;;
14903;SDS011;7543;53.148;8.234;2022-11-12T09:15:38;15.30;;;6.03;;
14903;SDS011;7543;53.148;8.234;2022-11-12T09:18:24;8.63;;;5.53;;
14903;SDS011;7543;53.148;8.234;2022-11-12T09:21:11;8.97;;;5.40;;
14903;SDS011;7543;53.148;8.234;2022-11-12T09:23:59;10.30;;;5.50;;
14903;SDS011;7543;53.148;8.234;2022-11-12T09:26:46;9.27;;;5.20;;
14903;SDS011;7543;53.148;8.234;2022-11-12T09:29:32;8.27;;;4.90;;
14903;SDS011;7543;53.148;8.234;2022-11-12T09:32:19;9.67;;;5.47;;
14903;SDS011;7543;53.148;8.234;2022-11-12T09:35:06;10.83;;;5.80;;
14903;SDS011;7543;53.148;8.234;2022-11-12T09:37:53;8.87;;;5.20;;
14903;SDS011;7543;53.148;8.234;2022-11-12T09:40:44;9.87;;;4.70;;
14903;SDS011;7543;53.148;8.234;2022-11-12T09:43:39;7.60;;;5.03;;
14903;SDS011;7543;53.148;8.234;2022-11-12T09:46:32;7.37;;;4.83;;
14903;SDS011;7543;53.148;8.234;2022-11-12T09:49:22;9.40;;;5.20;;
14903;SDS011;7543;53.148;8.234;2022-11-12T09:52:11;8.30;;;5.53;;
14903;SDS011;7543;53.148;8.234;2022-11-12T09:55:01;11.07;;;5.40;;
14903;SDS011;7543;53.148;8.234;2022-11-12T09:57:52;6.63;;;4.60;;
14903;SDS011;7543;53.148;8.234;2022-11-12T10:00:39;9.77;;;5.10;;
14903;SDS011;7543;53.148;8.234;2022-11-12T10:03:30;9.33;;;4.73;;
14903;SDS011;7543;53.148;8.234;2022-11-12T10:06:21;8.20;;;4.77;;
14903;SDS011;7543;53.148;8.234;2022-11-12T10:09:10;8.83;;;4.70;;
14903;SDS011;7543;53.148;8.234;2022-11-12T10:12:02;6.40;;;4.33;;
14903;SDS011;7543;53.148;8.234;2022-11-12T10:18:46;13.07;;;4.40;;
14903;SDS011;7543;53.148;8.234;2022-11-12T10:21:40;15.27;;;4.63;;
14903;SDS011;7543;53.148;8.234;2022-11-12T10:24:32;9.10;;;4.07;;
14903;SDS011;7543;53.148;8.234;2022-11-12T10:27:23;6.97;;;4.23;;
14903;SDS011;7543;53.148;8.234;2022-11-12T10:30:14;7.17;;;3.80;;
14903;SDS011;7543;53.148;8.234;2022-11-12T10:33:04;7.77;;;4.27;;
14903;SDS011;7543;53.148;8.234;2022-11-12T10:35:51;7.33;;;4.27;;
14903;SDS011;7543;53.148;8.234;2022-11-12T10:38:38;7.63;;;4.30;;
14903;SDS011;7543;53.148;8.234;2022-11-12T10:41:29;10.37;;;4.50;;
14903;SDS011;7543;53.148;8.234;2022-11-12T10:44:16;9.37;;;4.50;;
14903;SDS011;7543;53.148;8.234;2022-11-12T10:50:26;8.07;;;4.50;;
14903;SDS011;7543;53.148;8.234;2022-11-12T10:53:26;9.50;;;4.50;;
14903;SDS011;7543;53.148;8.234;2022-11-12T10:56:23;9.57;;;4.30;;
14903;SDS011;7543;53.148;8.234;2022-11-12T10:59:15;8.47;;;4.27;;
14903;SDS011;7543;53.148;8.234;2022-11-12T11:02:02;8.67;;;4.40;;
14903;SDS011;7543;53.148;8.234;2022-11-12T11:04:48;7.63;;;4.70;;
14903;SDS011;7543;53.148;8.234;2022-11-12T11:07:37;6.47;;;4.37;;
14903;SDS011;7543;53.148;8.234;2022-11-12T11:10:27;7.33;;;4.63;;
14903;SDS011;7543;53.148;8.234;2022-11-12T11:13:18;8.57;;;4.17;;
14903;SDS011;7543;53.148;8.234;2022-11-12T11:16:07;7.90;;;4.70;;
14903;SDS011;7543;53.148;8.234;2022-11-12T11:18:56;7.77;;;4.37;;
14903;SDS011;7543;53.148;8.234;2022-11-12T11:25:16;8.73;;;5.00;;
14903;SDS011;7543;53.148;8.234;2022-11-12T11:28:08;8.03;;;4.50;;
14903;SDS011;7543;53.148;8.234;2022-11-12T11:31:01;6.83;;;4.03;;
14903;SDS011;7543;53.148;8.234;2022-11-12T11:33:52;7.47;;;4.43;;
14903;SDS011;7543;53.148;8.234;2022-11-12T11:36:45;7.53;;;4.30;;
14903;SDS011;7543;53.148;8.234;2022-11-12T11:39:36;7.93;;;4.63;;
14903;SDS011;7543;53.148;8.234;2022-11-12T11:42:38;8.00;;;4.40;;
14903;SDS011;7543;53.148;8.234;2022-11-12T11:45:36;8.77;;;4.77;;
14903;SDS011;7543;53.148;8.234;2022-11-12T11:48:38;8.60;;;4.57;;
14903;SDS011;7543;53.148;8.234;2022-11-12T11:51:35;7.13;;;4.37;;
14903;SDS011;7543;53.148;8.234;2022-11-12T11:54:41;10.20;;;4.37;;
14903;SDS011;7543;53.148;8.234;2022-11-12T11:57:41;7.93;;;4.57;;
14903;SDS011;7543;53.148;8.234;2022-11-12T12:00:41;8.73;;;4.20;;
14903;SDS011;7543;53.148;8.234;2022-11-12T12:03:35;8.57;;;4.03;;
14903;SDS011;7543;53.148;8.234;2022-11-12T12:06:28;6.53;;;4.30;;
14903;SDS011;7543;53.148;8.234;2022-11-12T12:09:23;6.90;;;4.23;;
14903;SDS011;7543;53.148;8.234;2022-11-12T12:12:17;8.17;;;4.63;;
14903;SDS011;7543;53.148;8.234;2022-11-12T12:15:18;6.67;;;4.50;;
14903;SDS011;7543;53.148;8.234;2022-11-12T12:18:18;8.93;;;4.87;;
14903;SDS011;7543;53.148;8.234;2022-11-12T12:21:14;9.80;;;5.13;;
14903;SDS011;7543;53.148;8.234;2022-11-12T12:24:02;8.23;;;4.43;;
14903;SDS011;7543;53.148;8.234;2022-11-12T12:26:52;7.67;;;4.50;;
14903;SDS011;7543;53.148;8.234;2022-11-12T12:29:41;8.67;;;4.97;;
14903;SDS011;7543;53.148;8.234;2022-11-12T12:32:34;8.03;;;4.33;;
14903;SDS011;7543;53.148;8.234;2022-11-12T12:35:24;7.57;;;4.53;;
14903;SDS011;7543;53.148;8.234;2022-11-12T12:38:13;10.33;;;5.13;;
14903;SDS011;7543;53.148;8.234;2022-11-12T12:41:05;7.80;;;5.10;;
14903;SDS011;7543;53.148;8.234;2022-11-12T12:43:57;8.07;;;4.97;;
14903;SDS011;7543;53.148;8.234;2022-11-12T12:46:49;11.40;;;4.10;;
14903;SDS011;7543;53.148;8.234;2022-11-12T12:49:40;7.60;;;4.60;;
14903;SDS011;7543;53.148;8.234;2022-11-12T12:52:28;7.87;;;4.67;;
14903;SDS011;7543;53.148;8.234;2022-11-12T12:58:22;14.63;;;4.73;;
14903;SDS011;7543;53.148;8.234;2022-11-12T13:01:13;7.37;;;4.27;;
14903;SDS011;7543;53.148;8.234;2022-11-12T13:04:13;9.30;;;4.07;;
14903;SDS011;7543;53.148;8.234;2022-11-12T13:07:01;6.23;;;4.33;;
14903;SDS011;7543;53.148;8.234;2022-11-12T13:09:49;8.70;;;4.47;;
14903;SDS011;7543;53.148;8.234;2022-11-12T13:16:08;7.97;;;4.60;;
14903;SDS011;7543;53.148;8.234;2022-11-12T13:18:56;9.97;;;4.33;;
14903;SDS011;7543;53.148;8.234;2022-11-12T13:21:53;7.47;;;3.70;;
14903;SDS011;7543;53.148;8.234;2022-11-12T13:25:23;6.30;;;4.30;;
14903;SDS011;7543;53.148;8.234;2022-11-12T13:28:11;6.37;;;3.90;;
14903;SDS011;7543;53.148;8.234;2022-11-12T13:31:00;8.03;;;4.37;;
14903;SDS011;7543;53.148;8.234;2022-11-12T13:33:47;6.83;;;4.07;;
14903;SDS011;7543;53.148;8.234;2022-11-12T13:36:34;5.57;;;3.53;;
14903;SDS011;7543;53.148;8.234;2022-11-12T13:39:25;7.13;;;4.10;;
14903;SDS011;7543;53.148;8.234;2022-11-12T13:42:12;9.07;;;4.17;;
14903;SDS011;7543;53.148;8.234;2022-11-12T13:45:19;7.93;;;4.20;;
14903;SDS011;7543;53.148;8.234;2022-11-12T13:48:11;11.83;;;4.03;;
14903;SDS011;7543;53.148;8.234;2022-11-12T13:51:01;10.27;;;4.20;;
14903;SDS011;7543;53.148;8.234;2022-11-12T13:53:49;5.77;;;3.97;;
14903;SDS011;7543;53.148;8.234;2022-11-12T13:56:37;8.70;;;3.93;;
14903;SDS011;7543;53.148;8.234;2022-11-12T13:59:24;5.53;;;3.37;;
14903;SDS011;7543;53.148;8.234;2022-11-12T14:02:17;5.00;;;3.70;;
14903;SDS011;7543;53.148;8.234;2022-11-12T14:05:11;6.30;;;3.83;;
14903;SDS011;7543;53.148;8.234;2022-11-12T14:08:03;6.13;;;3.90;;
14903;SDS011;7543;53.148;8.234;2022-11-12T14:10:58;7.53;;;3.90;;
14903;SDS011;7543;53.148;8.234;2022-11-12T14:13:54;7.33;;;3.70;;
14903;SDS011;7543;53.148;8.234;2022-11-12T14:16:50;5.20;;;3.50;;
14903;SDS011;7543;53.148;8.234;2022-11-12T14:19:54;6.70;;;3.77;;
14903;SDS011;7543;53.148;8.234;2022-11-12T14:22:56;5.60;;;3.50;;
14903;SDS011;7543;53.148;8.234;2022-11-12T14:25:50;6.67;;;3.27;;
14903;SDS011;7543;53.148;8.234;2022-11-12T14:28:38;6.97;;;3.90;;
14903;SDS011;7543;53.148;8.234;2022-11-12T14:31:26;7.37;;;3.57;;
14903;SDS011;7543;53.148;8.234;2022-11-12T14:34:19;6.60;;;3.50;;
14903;SDS011;7543;53.148;8.234;2022-11-12T14:37:07;6.17;;;3.63;;
14903;SDS011;7543;53.148;8.234;2022-11-12T14:40:13;5.17;;;3.23;;
14903;SDS011;7543;53.148;8.234;2022-11-12T14:43:01;11.00;;;3.60;;
14903;SDS011;7543;53.148;8.234;2022-11-12T14:45:48;6.40;;;3.90;;
14903;SDS011;7543;53.148;8.234;2022-11-12T14:48:46;4.63;;;3.33;;
14903;SDS011;7543;53.148;8.234;2022-11-12T14:51:35;7.60;;;3.50;;
14903;SDS011;7543;53.148;8.234;2022-11-12T14:54:28;5.67;;;3.47;;
14903;SDS011;7543;53.148;8.234;2022-11-12T14:57:17;5.23;;;3.57;;
14903;SDS011;7543;53.148;8.234;2022-11-12T15:00:16;7.27;;;3.70;;
14903;SDS011;7543;53.148;8.234;2022-11-12T15:03:04;7.07;;;3.63;;
14903;SDS011;7543;53.148;8.234;2022-11-12T15:05:53;4.50;;;2.87;;
14903;SDS011;7543;53.148;8.234;2022-11-12T15:08:41;6.00;;;3.33;;
14903;SDS011;7543;53.148;8.234;2022-11-12T15:11:29;7.90;;;3.90;;
14903;SDS011;7543;53.148;8.234;2022-11-12T15:14:19;10.20;;;4.77;;
14903;SDS011;7543;53.148;8.234;2022-11-12T15:17:16;5.13;;;3.50;;
14903;SDS011;7543;53.148;8.234;2022-11-12T15:20:11;8.97;;;3.63;;
14903;SDS011;7543;53.148;8.234;2022-11-12T15:23:00;7.73;;;3.97;;
14903;SDS011;7543;53.148;8.234;2022-11-12T15:25:56;7.93;;;3.63;;
14903;SDS011;7543;53.148;8.234;2022-11-12T15:28:56;9.53;;;4.23;;
14903;SDS011;7543;53.148;8.234;2022-11-12T15:31:44;10.87;;;4.97;;
14903;SDS011;7543;53.148;8.234;2022-11-12T15:34:42;5.17;;;3.73;;
14903;SDS011;7543;53.148;8.234;2022-11-12T15:37:40;7.23;;;3.77;;
14903;SDS011;7543;53.148;8.234;2022-11-12T15:40:28;7.43;;;4.33;;
14903;SDS011;7543;53.148;8.234;2022-11-12T15:43:17;6.13;;;4.10;;
14903;SDS011;7543;53.148;8.234;2022-11-12T15:46:09;5.97;;;3.87;;
14903;SDS011;7543;53.148;8.234;2022-11-12T15:48:57;9.20;;;3.97;;
14903;SDS011;7543;53.148;8.234;2022-11-12T15:51:43;6.47;;;3.57;;
14903;SDS011;7543;53.148;8.234;2022-11-12T15:54:30;7.43;;;4.27;;
14903;SDS011;7543;53.148;8.234;2022-11-12T15:57:19;9.23;;;4.20;;
14903;SDS011;7543;53.148;8.234;2022-11-12T16:00:09;8.37;;;4.90;;
14903;SDS011;7543;53.148;8.234;2022-11-12T16:03:02;12.50;;;5.37;;
14903;SDS011;7543;53.148;8.234;2022-11-12T16:05:56;10.67;;;5.40;;
14903;SDS011;7543;53.148;8.234;2022-11-12T16:08:43;10.63;;;5.07;;
14903;SDS011;7543;53.148;8.234;2022-11-12T16:11:30;8.93;;;5.10;;
14903;SDS011;7543;53.148;8.234;2022-11-12T16:14:24;8.10;;;4.77;;
14903;SDS011;7543;53.148;8.234;2022-11-12T16:17:12;9.47;;;4.90;;
14903;SDS011;7543;53.148;8.234;2022-11-12T16:19:59;12.27;;;5.07;;
14903;SDS011;7543;53.148;8.234;2022-11-12T16:22:46;10.07;;;5.10;;
14903;SDS011;7543;53.148;8.234;2022-11-12T16:25:34;7.43;;;4.27;;
14903;SDS011;7543;53.148;8.234;2022-11-12T16:28:21;7.77;;;4.33;;
14903;SDS011;7543;53.148;8.234;2022-11-12T16:31:09;9.07;;;5.30;;
14903;SDS011;7543;53.148;8.234;2022-11-12T16:33:56;8.17;;;5.10;;
14903;SDS011;7543;53.148;8.234;2022-11-12T16:36:42;12.10;;;5.83;;
14903;SDS011;7543;53.148;8.234;2022-11-12T16:39:29;9.50;;;5.47;;
14903;SDS011;7543;53.148;8.234;2022-11-12T16:42:16;13.93;;;7.13;;
14903;SDS011;7543;53.148;8.234;2022-11-12T16:45:03;11.77;;;6.53;;
14903;SDS011;7543;53.148;8.234;2022-11-12T16:47:52;12.80;;;6.30;;
14903;SDS011;7543;53.148;8.234;2022-11-12T16:50:40;10.47;;;6.00;;
14903;SDS011;7543;53.148;8.234;2022-11-12T16:53:27;11.07;;;6.33;;
14903;SDS011;7543;53.148;8.234;2022-11-12T16:56:15;13.43;;;6.40;;
14903;SDS011;7543;53.148;8.234;2022-11-12T16:59:03;21.43;;;7.53;;
14903;SDS011;7543;53.148;8.234;2022-11-12T17:01:50;28.03;;;12.37;;
14903;SDS011;7543;53.148;8.234;2022-11-12T17:04:38;23.03;;;11.10;;
14903;SDS011;7543;53.148;8.234;2022-11-12T17:07:25;31.77;;;12.33;;
14903;SDS011;7543;53.148;8.234;2022-11-12T17:10:12;27.10;;;12.63;;
14903;SDS011;7543;53.148;8.234;2022-11-12T17:12:59;30.10;;;13.80;;
14903;SDS011;7543;53.148;8.234;2022-11-12T17:15:45;25.40;;;13.13;;
14903;SDS011;7543;53.148;8.234;2022-11-12T17:18:32;28.80;;;13.30;;
14903;SDS011;7543;53.148;8.234;2022-11-12T17:21:21;25.17;;;11.73;;
14903;SDS011;7543;53.148;8.234;2022-11-12T17:24:08;18.37;;;9.80;;
14903;SDS011;7543;53.148;8.234;2022-11-12T17:26:55;16.00;;;8.10;;
14903;SDS011;7543;53.148;8.234;2022-11-12T17:29:42;14.03;;;7.73;;
14903;SDS011;7543;53.148;8.234;2022-11-12T17:32:28;12.13;;;6.80;;